sensor_id;sensor_type;location;lat;lon;timestamp;temperature;humidity
37002;DHT22;22913;51.910;8.374;2023-02-15T00:01:07;4.60;99.90
37002;DHT22;22913;51.910;8.374;2023-02-15T00:03:53;4.60;99.90
37002;DHT22;22913;51.910;8.374;2023-02-15T00:06:40;4.50;99.90
37002;DHT22;22913;51.910;8.374;2023-02-15T00:09:26;4.50;99.90
37002;DHT22;22913;51.910;8.374;2023-02-15T00:12:13;4.50;99.90
37002;DHT22;22913;51.910;8.374;2023-02-15T00:14:59;4.40;99.90
37002;DHT22;22913;51.910;8.374;2023-02-15T00:17:45;4.50;99.90
37002;DHT22;22913;51.910;8.374;2023-02-15T00:20:31;4.40;99.90
37002;DHT22;22913;51.910;8.374;2023-02-15T00:23:18;4.30;99.90
37002;DHT22;22913;51.910;8.374;2023-02-15T00:26:05;4.30;99.90
37002;DHT22;22913;51.910;8.374;2023-02-15T00:28:52;4.20;99.90
37002;DHT22;22913;51.910;8.374;2023-02-15T00:31:37;4.20;99.90
37002;DHT22;22913;51.910;8.374;2023-02-15T00:34:25;4.20;99.90
37002;DHT22;22913;51.910;8.374;2023-02-15T00:37:11;4.20;99.90
37002;DHT22;22913;51.910;8.374;2023-02-15T00:39:58;4.20;99.90
37002;DHT22;22913;51.910;8.374;2023-02-15T00:42:43;4.10;99.90
37002;DHT22;22913;51.910;8.374;2023-02-15T00:45:29;4.10;99.90
37002;DHT22;22913;51.910;8.374;2023-02-15T00:48:16;4.10;99.90
37002;DHT22;22913;51.910;8.374;2023-02-15T00:51:01;4.10;99.90
37002;DHT22;22913;51.910;8.374;2023-02-15T00:53:47;4.10;99.90
37002;DHT22;22913;51.910;8.374;2023-02-15T00:56:35;4.00;99.90
37002;DHT22;22913;51.910;8.374;2023-02-15T00:59:20;4.00;99.90
37002;DHT22;22913;51.910;8.374;2023-02-15T01:02:06;3.90;99.90
37002;DHT22;22913;51.910;8.374;2023-02-15T01:04:52;3.90;99.90
37002;DHT22;22913;51.910;8.374;2023-02-15T01:07:38;3.90;99.90
37002;DHT22;22913;51.910;8.374;2023-02-15T01:10:25;3.80;99.90
37002;DHT22;22913;51.910;8.374;2023-02-15T01:13:13;3.80;99.90
37002;DHT22;22913;51.910;8.374;2023-02-15T01:15:58;3.80;99.90
37002;DHT22;22913;51.910;8.374;2023-02-15T01:18:44;3.80;99.90
37002;DHT22;22913;51.910;8.374;2023-02-15T01:21:32;3.80;99.90
37002;DHT22;22913;51.910;8.374;2023-02-15T01:24:18;3.70;99.90
37002;DHT22;22913;51.910;8.374;2023-02-15T01:27:04;3.70;99.90
37002;DHT22;22913;51.910;8.374;2023-02-15T01:29:51;3.80;99.90
37002;DHT22;22913;51.910;8.374;2023-02-15T01:32:37;3.80;99.90
37002;DHT22;22913;51.910;8.374;2023-02-15T01:35:23;3.80;99.90
37002;DHT22;22913;51.910;8.374;2023-02-15T01:38:09;3.70;99.90
37002;DHT22;22913;51.910;8.374;2023-02-15T01:40:55;3.80;99.90
37002;DHT22;22913;51.910;8.374;2023-02-15T01:44:03;3.80;99.90
37002;DHT22;22913;51.910;8.374;2023-02-15T01:46:52;3.70;99.90
37002;DHT22;22913;51.910;8.374;2023-02-15T01:49:39;3.60;99.90
37002;DHT22;22913;51.910;8.374;2023-02-15T01:52:26;3.70;99.90
37002;DHT22;22913;51.910;8.374;2023-02-15T01:55:12;3.60;99.90
37002;DHT22;22913;51.910;8.374;2023-02-15T01:57:59;3.60;99.90
37002;DHT22;22913;51.910;8.374;2023-02-15T02:00:45;3.60;99.90
37002;DHT22;22913;51.910;8.374;2023-02-15T02:03:38;3.50;99.90
37002;DHT22;22913;51.910;8.374;2023-02-15T02:06:27;3.60;99.90
37002;DHT22;22913;51.910;8.374;2023-02-15T02:09:13;3.50;99.90
37002;DHT22;22913;51.910;8.374;2023-02-15T02:12:00;3.50;99.90
37002;DHT22;22913;51.910;8.374;2023-02-15T02:14:47;3.50;99.90
37002;DHT22;22913;51.910;8.374;2023-02-15T02:17:39;3.50;99.90
37002;DHT22;22913;51.910;8.374;2023-02-15T02:20:51;3.50;99.90
37002;DHT22;22913;51.910;8.374;2023-02-15T02:23:51;3.50;99.90
37002;DHT22;22913;51.910;8.374;2023-02-15T02:30:28;3.40;99.90
37002;DHT22;22913;51.910;8.374;2023-02-15T02:33:28;3.30;99.90
37002;DHT22;22913;51.910;8.374;2023-02-15T02:36:21;3.30;99.90
37002;DHT22;22913;51.910;8.374;2023-02-15T02:39:23;3.20;99.90
37002;DHT22;22913;51.910;8.374;2023-02-15T02:42:18;3.20;99.90
37002;DHT22;22913;51.910;8.374;2023-02-15T02:45:08;3.20;99.90
37002;DHT22;22913;51.910;8.374;2023-02-15T02:47:58;3.20;99.90
37002;DHT22;22913;51.910;8.374;2023-02-15T02:50:46;3.10;99.90
37002;DHT22;22913;51.910;8.374;2023-02-15T02:53:33;3.10;99.90
37002;DHT22;22913;51.910;8.374;2023-02-15T02:56:23;3.10;99.90
37002;DHT22;22913;51.910;8.374;2023-02-15T02:59:14;3.00;99.90
37002;DHT22;22913;51.910;8.374;2023-02-15T03:02:05;3.00;99.90
37002;DHT22;22913;51.910;8.374;2023-02-15T03:05:00;3.00;99.90
37002;DHT22;22913;51.910;8.374;2023-02-15T03:07:50;3.00;99.90
37002;DHT22;22913;51.910;8.374;2023-02-15T03:10:38;3.00;99.90
37002;DHT22;22913;51.910;8.374;2023-02-15T03:13:26;3.00;99.90
37002;DHT22;22913;51.910;8.374;2023-02-15T03:16:13;2.90;99.90
37002;DHT22;22913;51.910;8.374;2023-02-15T03:19:14;2.90;99.90
37002;DHT22;22913;51.910;8.374;2023-02-15T03:22:06;2.90;99.90
37002;DHT22;22913;51.910;8.374;2023-02-15T03:24:58;2.80;99.90
37002;DHT22;22913;51.910;8.374;2023-02-15T03:27:47;2.80;99.90
37002;DHT22;22913;51.910;8.374;2023-02-15T03:30:35;2.80;99.90
37002;DHT22;22913;51.910;8.374;2023-02-15T03:33:23;2.80;99.90
37002;DHT22;22913;51.910;8.374;2023-02-15T03:36:12;2.80;99.90
37002;DHT22;22913;51.910;8.374;2023-02-15T03:39:09;2.80;99.90
37002;DHT22;22913;51.910;8.374;2023-02-15T03:42:01;2.80;99.90
37002;DHT22;22913;51.910;8.374;2023-02-15T03:44:51;2.90;99.90
37002;DHT22;22913;51.910;8.374;2023-02-15T03:47:41;2.80;99.90
37002;DHT22;22913;51.910;8.374;2023-02-15T03:50:30;2.80;99.90
37002;DHT22;22913;51.910;8.374;2023-02-15T03:53:43;2.80;99.90
37002;DHT22;22913;51.910;8.374;2023-02-15T03:56:33;2.70;99.90
37002;DHT22;22913;51.910;8.374;2023-02-15T03:59:21;2.70;99.90
37002;DHT22;22913;51.910;8.374;2023-02-15T04:02:28;2.60;99.90
37002;DHT22;22913;51.910;8.374;2023-02-15T04:05:19;2.60;99.90
37002;DHT22;22913;51.910;8.374;2023-02-15T04:08:05;2.60;99.90
37002;DHT22;22913;51.910;8.374;2023-02-15T04:10:51;2.60;99.90
37002;DHT22;22913;51.910;8.374;2023-02-15T04:13:40;2.60;99.90
37002;DHT22;22913;51.910;8.374;2023-02-15T04:16:28;2.60;99.90
37002;DHT22;22913;51.910;8.374;2023-02-15T04:19:13;2.60;99.90
37002;DHT22;22913;51.910;8.374;2023-02-15T04:22:16;2.50;99.90
37002;DHT22;22913;51.910;8.374;2023-02-15T04:25:20;2.50;99.90
37002;DHT22;22913;51.910;8.374;2023-02-15T04:28:06;2.40;99.90
37002;DHT22;22913;51.910;8.374;2023-02-15T04:30:52;2.40;99.90
37002;DHT22;22913;51.910;8.374;2023-02-15T04:33:42;2.40;99.90
37002;DHT22;22913;51.910;8.374;2023-02-15T04:36:28;2.40;99.90
37002;DHT22;22913;51.910;8.374;2023-02-15T04:39:15;2.30;99.90
37002;DHT22;22913;51.910;8.374;2023-02-15T04:42:01;2.40;99.90
37002;DHT22;22913;51.910;8.374;2023-02-15T04:44:47;2.30;99.90
37002;DHT22;22913;51.910;8.374;2023-02-15T04:47:33;2.30;99.90
37002;DHT22;22913;51.910;8.374;2023-02-15T04:50:20;2.20;99.90
37002;DHT22;22913;51.910;8.374;2023-02-15T04:53:06;2.30;99.90
37002;DHT22;22913;51.910;8.374;2023-02-15T04:55:51;2.20;99.90
37002;DHT22;22913;51.910;8.374;2023-02-15T04:58:37;2.10;99.90
37002;DHT22;22913;51.910;8.374;2023-02-15T05:01:25;2.20;99.90
37002;DHT22;22913;51.910;8.374;2023-02-15T05:04:10;2.10;99.90
37002;DHT22;22913;51.910;8.374;2023-02-15T05:06:58;2.10;99.90
37002;DHT22;22913;51.910;8.374;2023-02-15T05:09:43;2.10;99.90
37002;DHT22;22913;51.910;8.374;2023-02-15T05:12:29;2.10;99.90
37002;DHT22;22913;51.910;8.374;2023-02-15T05:15:15;2.10;99.90
37002;DHT22;22913;51.910;8.374;2023-02-15T05:18:01;2.10;99.90
37002;DHT22;22913;51.910;8.374;2023-02-15T05:20:48;2.10;99.90
37002;DHT22;22913;51.910;8.374;2023-02-15T05:23:35;2.00;99.90
37002;DHT22;22913;51.910;8.374;2023-02-15T05:26:22;2.00;99.90
37002;DHT22;22913;51.910;8.374;2023-02-15T05:29:26;2.00;99.90
37002;DHT22;22913;51.910;8.374;2023-02-15T05:32:12;2.00;99.90
37002;DHT22;22913;51.910;8.374;2023-02-15T05:34:58;2.00;99.90
37002;DHT22;22913;51.910;8.374;2023-02-15T05:37:44;2.00;99.90
37002;DHT22;22913;51.910;8.374;2023-02-15T05:40:31;1.90;99.90
37002;DHT22;22913;51.910;8.374;2023-02-15T05:43:17;1.90;99.90
37002;DHT22;22913;51.910;8.374;2023-02-15T05:46:03;1.90;99.90
37002;DHT22;22913;51.910;8.374;2023-02-15T05:48:49;1.90;99.90
37002;DHT22;22913;51.910;8.374;2023-02-15T05:51:35;1.80;99.90
37002;DHT22;22913;51.910;8.374;2023-02-15T05:54:20;1.80;99.90
37002;DHT22;22913;51.910;8.374;2023-02-15T05:57:08;1.80;99.90
37002;DHT22;22913;51.910;8.374;2023-02-15T05:59:53;1.80;99.90
37002;DHT22;22913;51.910;8.374;2023-02-15T06:02:39;1.80;99.90
37002;DHT22;22913;51.910;8.374;2023-02-15T06:05:25;1.70;99.90
37002;DHT22;22913;51.910;8.374;2023-02-15T06:08:11;1.70;99.90
37002;DHT22;22913;51.910;8.374;2023-02-15T06:10:57;1.70;99.90
37002;DHT22;22913;51.910;8.374;2023-02-15T06:13:44;1.70;99.90
37002;DHT22;22913;51.910;8.374;2023-02-15T06:16:30;1.70;99.90
37002;DHT22;22913;51.910;8.374;2023-02-15T06:19:16;1.70;99.90
37002;DHT22;22913;51.910;8.374;2023-02-15T06:22:02;1.70;99.90
37002;DHT22;22913;51.910;8.374;2023-02-15T06:24:48;1.60;99.90
37002;DHT22;22913;51.910;8.374;2023-02-15T06:27:33;1.60;99.90
37002;DHT22;22913;51.910;8.374;2023-02-15T06:30:20;1.60;99.90
37002;DHT22;22913;51.910;8.374;2023-02-15T06:33:06;1.60;99.90
37002;DHT22;22913;51.910;8.374;2023-02-15T06:35:52;1.60;99.90
37002;DHT22;22913;51.910;8.374;2023-02-15T06:38:38;1.60;99.90
37002;DHT22;22913;51.910;8.374;2023-02-15T06:41:24;1.60;99.90
37002;DHT22;22913;51.910;8.374;2023-02-15T06:44:10;1.50;99.90
37002;DHT22;22913;51.910;8.374;2023-02-15T06:46:57;1.50;99.90
37002;DHT22;22913;51.910;8.374;2023-02-15T06:49:43;1.40;99.90
37002;DHT22;22913;51.910;8.374;2023-02-15T06:52:29;1.50;99.90
37002;DHT22;22913;51.910;8.374;2023-02-15T06:55:15;1.50;99.90
37002;DHT22;22913;51.910;8.374;2023-02-15T06:58:00;1.50;99.90
37002;DHT22;22913;51.910;8.374;2023-02-15T07:00:46;1.50;99.90
37002;DHT22;22913;51.910;8.374;2023-02-15T07:03:35;1.40;99.90
37002;DHT22;22913;51.910;8.374;2023-02-15T07:06:21;1.50;99.90
37002;DHT22;22913;51.910;8.374;2023-02-15T07:09:07;1.50;99.90
37002;DHT22;22913;51.910;8.374;2023-02-15T07:11:52;1.50;99.90
37002;DHT22;22913;51.910;8.374;2023-02-15T07:14:56;1.40;99.90
37002;DHT22;22913;51.910;8.374;2023-02-15T07:17:42;1.50;99.90
37002;DHT22;22913;51.910;8.374;2023-02-15T07:20:30;1.50;99.90
37002;DHT22;22913;51.910;8.374;2023-02-15T07:23:17;1.50;99.90
37002;DHT22;22913;51.910;8.374;2023-02-15T07:26:04;1.60;99.90
37002;DHT22;22913;51.910;8.374;2023-02-15T07:28:50;1.70;99.90
37002;DHT22;22913;51.910;8.374;2023-02-15T07:31:36;1.80;99.90
37002;DHT22;22913;51.910;8.374;2023-02-15T07:34:22;1.80;99.90
37002;DHT22;22913;51.910;8.374;2023-02-15T07:37:09;1.80;99.90
37002;DHT22;22913;51.910;8.374;2023-02-15T07:39:55;1.80;99.90
37002;DHT22;22913;51.910;8.374;2023-02-15T07:42:41;1.80;99.90
37002;DHT22;22913;51.910;8.374;2023-02-15T07:45:27;1.80;99.90
37002;DHT22;22913;51.910;8.374;2023-02-15T07:48:13;1.90;99.90
37002;DHT22;22913;51.910;8.374;2023-02-15T07:50:59;1.90;99.90
37002;DHT22;22913;51.910;8.374;2023-02-15T07:53:46;1.90;99.90
37002;DHT22;22913;51.910;8.374;2023-02-15T07:56:31;2.00;99.90
37002;DHT22;22913;51.910;8.374;2023-02-15T07:59:18;2.00;99.90
37002;DHT22;22913;51.910;8.374;2023-02-15T08:02:05;2.00;99.90
37002;DHT22;22913;51.910;8.374;2023-02-15T08:04:54;2.10;99.90
37002;DHT22;22913;51.910;8.374;2023-02-15T08:07:39;2.20;99.90
37002;DHT22;22913;51.910;8.374;2023-02-15T08:10:26;2.30;99.90
37002;DHT22;22913;51.910;8.374;2023-02-15T08:13:32;2.30;99.90
37002;DHT22;22913;51.910;8.374;2023-02-15T08:16:18;2.40;99.90
37002;DHT22;22913;51.910;8.374;2023-02-15T08:19:05;2.50;99.90
37002;DHT22;22913;51.910;8.374;2023-02-15T08:21:53;2.50;99.90
37002;DHT22;22913;51.910;8.374;2023-02-15T08:24:38;2.60;99.90
37002;DHT22;22913;51.910;8.374;2023-02-15T08:27:25;2.70;99.90
37002;DHT22;22913;51.910;8.374;2023-02-15T08:30:12;2.70;99.90
37002;DHT22;22913;51.910;8.374;2023-02-15T08:32:58;2.80;99.90
37002;DHT22;22913;51.910;8.374;2023-02-15T08:35:44;2.80;99.90
37002;DHT22;22913;51.910;8.374;2023-02-15T08:38:29;3.00;99.90
37002;DHT22;22913;51.910;8.374;2023-02-15T08:41:17;3.20;99.90
37002;DHT22;22913;51.910;8.374;2023-02-15T08:44:06;3.10;99.90
37002;DHT22;22913;51.910;8.374;2023-02-15T08:46:52;3.20;99.90
37002;DHT22;22913;51.910;8.374;2023-02-15T08:49:38;3.30;99.90
37002;DHT22;22913;51.910;8.374;2023-02-15T08:52:24;3.40;99.90
37002;DHT22;22913;51.910;8.374;2023-02-15T08:55:10;3.40;99.90
37002;DHT22;22913;51.910;8.374;2023-02-15T08:57:55;3.50;99.90
37002;DHT22;22913;51.910;8.374;2023-02-15T09:00:42;3.60;99.90
37002;DHT22;22913;51.910;8.374;2023-02-15T09:03:28;3.60;99.90
37002;DHT22;22913;51.910;8.374;2023-02-15T09:06:14;3.70;99.90
37002;DHT22;22913;51.910;8.374;2023-02-15T09:08:59;3.80;99.90
37002;DHT22;22913;51.910;8.374;2023-02-15T09:11:47;3.90;99.90
37002;DHT22;22913;51.910;8.374;2023-02-15T09:14:33;4.00;99.90
37002;DHT22;22913;51.910;8.374;2023-02-15T09:17:20;4.20;99.90
37002;DHT22;22913;51.910;8.374;2023-02-15T09:20:06;4.30;99.90
37002;DHT22;22913;51.910;8.374;2023-02-15T09:22:52;4.40;99.90
37002;DHT22;22913;51.910;8.374;2023-02-15T09:25:38;4.60;99.90
37002;DHT22;22913;51.910;8.374;2023-02-15T09:28:24;4.60;99.90
37002;DHT22;22913;51.910;8.374;2023-02-15T09:31:11;4.60;99.90
37002;DHT22;22913;51.910;8.374;2023-02-15T09:33:59;4.70;99.90
37002;DHT22;22913;51.910;8.374;2023-02-15T09:36:46;4.80;99.90
37002;DHT22;22913;51.910;8.374;2023-02-15T09:39:32;4.90;99.90
37002;DHT22;22913;51.910;8.374;2023-02-15T09:42:46;5.00;99.90
37002;DHT22;22913;51.910;8.374;2023-02-15T09:45:46;5.20;99.90
37002;DHT22;22913;51.910;8.374;2023-02-15T09:48:41;5.30;99.90
37002;DHT22;22913;51.910;8.374;2023-02-15T09:55:15;5.60;99.90
37002;DHT22;22913;51.910;8.374;2023-02-15T09:58:10;5.70;99.90
37002;DHT22;22913;51.910;8.374;2023-02-15T10:01:05;5.90;99.90
37002;DHT22;22913;51.910;8.374;2023-02-15T10:04:10;6.00;99.90
37002;DHT22;22913;51.910;8.374;2023-02-15T10:07:08;6.20;99.90
37002;DHT22;22913;51.910;8.374;2023-02-15T10:10:05;6.40;99.90
37002;DHT22;22913;51.910;8.374;2023-02-15T10:13:04;6.60;99.90
37002;DHT22;22913;51.910;8.374;2023-02-15T10:15:58;6.80;99.90
37002;DHT22;22913;51.910;8.374;2023-02-15T10:18:54;7.00;99.90
37002;DHT22;22913;51.910;8.374;2023-02-15T10:21:50;7.30;99.90
37002;DHT22;22913;51.910;8.374;2023-02-15T10:24:58;7.50;99.90
37002;DHT22;22913;51.910;8.374;2023-02-15T10:28:01;7.60;99.90
37002;DHT22;22913;51.910;8.374;2023-02-15T10:30:51;7.90;99.90
37002;DHT22;22913;51.910;8.374;2023-02-15T10:33:39;8.10;99.90
37002;DHT22;22913;51.910;8.374;2023-02-15T10:36:37;8.30;99.90
37002;DHT22;22913;51.910;8.374;2023-02-15T10:39:33;8.60;99.90
37002;DHT22;22913;51.910;8.374;2023-02-15T10:42:33;9.00;99.90
37002;DHT22;22913;51.910;8.374;2023-02-15T10:45:27;9.20;99.90
37002;DHT22;22913;51.910;8.374;2023-02-15T10:51:28;9.80;99.90
37002;DHT22;22913;51.910;8.374;2023-02-15T10:54:24;10.00;99.90
37002;DHT22;22913;51.910;8.374;2023-02-15T10:57:21;10.20;99.90
37002;DHT22;22913;51.910;8.374;2023-02-15T11:00:15;10.60;99.90
37002;DHT22;22913;51.910;8.374;2023-02-15T11:03:21;10.90;99.90
37002;DHT22;22913;51.910;8.374;2023-02-15T11:06:10;11.20;99.90
37002;DHT22;22913;51.910;8.374;2023-02-15T11:09:00;11.40;99.90
37002;DHT22;22913;51.910;8.374;2023-02-15T11:11:50;11.70;99.90
37002;DHT22;22913;51.910;8.374;2023-02-15T11:14:40;12.00;99.90
37002;DHT22;22913;51.910;8.374;2023-02-15T11:17:36;12.40;99.90
37002;DHT22;22913;51.910;8.374;2023-02-15T11:20:25;12.70;99.90
37002;DHT22;22913;51.910;8.374;2023-02-15T11:23:15;13.10;99.90
37002;DHT22;22913;51.910;8.374;2023-02-15T11:26:04;13.50;99.90
37002;DHT22;22913;51.910;8.374;2023-02-15T11:28:52;13.60;99.90
37002;DHT22;22913;51.910;8.374;2023-02-15T11:31:44;13.90;99.90
37002;DHT22;22913;51.910;8.374;2023-02-15T11:34:36;14.30;99.90
37002;DHT22;22913;51.910;8.374;2023-02-15T11:37:28;15.10;99.90
37002;DHT22;22913;51.910;8.374;2023-02-15T11:40:20;15.80;99.90
37002;DHT22;22913;51.910;8.374;2023-02-15T11:43:15;16.50;99.90
37002;DHT22;22913;51.910;8.374;2023-02-15T11:46:02;16.90;99.90
37002;DHT22;22913;51.910;8.374;2023-02-15T11:48:48;17.50;99.90
37002;DHT22;22913;51.910;8.374;2023-02-15T11:51:35;17.90;99.90
37002;DHT22;22913;51.910;8.374;2023-02-15T11:54:24;18.40;99.90
37002;DHT22;22913;51.910;8.374;2023-02-15T11:57:15;18.70;99.90
37002;DHT22;22913;51.910;8.374;2023-02-15T12:00:10;19.20;99.90
37002;DHT22;22913;51.910;8.374;2023-02-15T12:02:58;19.10;99.90
37002;DHT22;22913;51.910;8.374;2023-02-15T12:05:46;19.20;99.90
37002;DHT22;22913;51.910;8.374;2023-02-15T12:08:37;19.20;99.90
37002;DHT22;22913;51.910;8.374;2023-02-15T12:11:30;19.50;99.90
37002;DHT22;22913;51.910;8.374;2023-02-15T12:14:16;19.70;99.90
37002;DHT22;22913;51.910;8.374;2023-02-15T12:17:02;19.80;99.90
37002;DHT22;22913;51.910;8.374;2023-02-15T12:19:48;19.80;99.90
37002;DHT22;22913;51.910;8.374;2023-02-15T12:22:37;19.70;99.90
37002;DHT22;22913;51.910;8.374;2023-02-15T12:25:27;19.80;99.90
37002;DHT22;22913;51.910;8.374;2023-02-15T12:28:24;20.40;99.90
37002;DHT22;22913;51.910;8.374;2023-02-15T12:31:20;21.10;99.30
37002;DHT22;22913;51.910;8.374;2023-02-15T12:34:11;21.20;98.20
37002;DHT22;22913;51.910;8.374;2023-02-15T12:37:01;21.20;97.10
37002;DHT22;22913;51.910;8.374;2023-02-15T12:39:53;21.10;97.30
37002;DHT22;22913;51.910;8.374;2023-02-15T12:42:44;21.20;96.70
37002;DHT22;22913;51.910;8.374;2023-02-15T12:45:32;21.60;96.30
37002;DHT22;22913;51.910;8.374;2023-02-15T12:48:19;21.90;95.20
37002;DHT22;22913;51.910;8.374;2023-02-15T12:51:08;22.00;95.30
37002;DHT22;22913;51.910;8.374;2023-02-15T12:53:54;22.00;95.30
37002;DHT22;22913;51.910;8.374;2023-02-15T12:56:39;22.60;95.10
37002;DHT22;22913;51.910;8.374;2023-02-15T12:59:26;22.90;93.70
37002;DHT22;22913;51.910;8.374;2023-02-15T13:02:19;22.90;93.10
37002;DHT22;22913;51.910;8.374;2023-02-15T13:05:17;22.80;92.60
37002;DHT22;22913;51.910;8.374;2023-02-15T13:08:10;22.50;92.30
37002;DHT22;22913;51.910;8.374;2023-02-15T13:10:58;22.20;92.40
37002;DHT22;22913;51.910;8.374;2023-02-15T13:13:50;22.50;91.90
37002;DHT22;22913;51.910;8.374;2023-02-15T13:16:39;22.50;91.40
37002;DHT22;22913;51.910;8.374;2023-02-15T13:19:31;22.60;91.10
37002;DHT22;22913;51.910;8.374;2023-02-15T13:22:21;22.80;91.60
37002;DHT22;22913;51.910;8.374;2023-02-15T13:25:13;22.90;90.20
37002;DHT22;22913;51.910;8.374;2023-02-15T13:28:01;23.10;90.40
37002;DHT22;22913;51.910;8.374;2023-02-15T13:30:48;22.60;90.10
37002;DHT22;22913;51.910;8.374;2023-02-15T13:33:36;22.60;89.70
37002;DHT22;22913;51.910;8.374;2023-02-15T13:36:28;22.70;89.90
37002;DHT22;22913;51.910;8.374;2023-02-15T13:39:20;23.00;89.70
37002;DHT22;22913;51.910;8.374;2023-02-15T13:42:18;22.90;88.80
37002;DHT22;22913;51.910;8.374;2023-02-15T13:45:21;22.90;89.20
37002;DHT22;22913;51.910;8.374;2023-02-15T13:48:16;23.00;87.50
37002;DHT22;22913;51.910;8.374;2023-02-15T13:51:14;23.30;86.50
37002;DHT22;22913;51.910;8.374;2023-02-15T13:54:22;23.00;87.80
37002;DHT22;22913;51.910;8.374;2023-02-15T13:57:29;23.10;88.10
37002;DHT22;22913;51.910;8.374;2023-02-15T14:00:23;23.00;88.10
37002;DHT22;22913;51.910;8.374;2023-02-15T14:06:49;23.80;86.10
37002;DHT22;22913;51.910;8.374;2023-02-15T14:09:46;24.10;86.50
37002;DHT22;22913;51.910;8.374;2023-02-15T14:12:45;24.30;84.30
37002;DHT22;22913;51.910;8.374;2023-02-15T14:15:42;24.60;83.00
37002;DHT22;22913;51.910;8.374;2023-02-15T14:18:35;24.30;80.60
37002;DHT22;22913;51.910;8.374;2023-02-15T14:21:29;24.50;81.10
37002;DHT22;22913;51.910;8.374;2023-02-15T14:24:24;24.80;80.10
37002;DHT22;22913;51.910;8.374;2023-02-15T14:27:20;24.70;79.00
37002;DHT22;22913;51.910;8.374;2023-02-15T14:30:15;24.90;79.30
37002;DHT22;22913;51.910;8.374;2023-02-15T14:33:06;24.70;78.60
37002;DHT22;22913;51.910;8.374;2023-02-15T14:35:53;24.40;78.00
37002;DHT22;22913;51.910;8.374;2023-02-15T14:38:51;24.20;78.00
37002;DHT22;22913;51.910;8.374;2023-02-15T14:41:46;24.40;77.40
37002;DHT22;22913;51.910;8.374;2023-02-15T14:44:37;25.20;76.90
37002;DHT22;22913;51.910;8.374;2023-02-15T14:47:28;25.10;75.90
37002;DHT22;22913;51.910;8.374;2023-02-15T14:50:40;25.00;75.90
37002;DHT22;22913;51.910;8.374;2023-02-15T14:53:44;25.40;74.90
37002;DHT22;22913;51.910;8.374;2023-02-15T14:56:29;25.30;74.10
37002;DHT22;22913;51.910;8.374;2023-02-15T14:59:18;25.10;74.90
37002;DHT22;22913;51.910;8.374;2023-02-15T15:02:13;24.20;74.90
37002;DHT22;22913;51.910;8.374;2023-02-15T15:05:07;24.40;75.80
37002;DHT22;22913;51.910;8.374;2023-02-15T15:07:54;24.60;75.30
37002;DHT22;22913;51.910;8.374;2023-02-15T15:10:43;24.60;76.10
37002;DHT22;22913;51.910;8.374;2023-02-15T15:13:37;24.70;75.00
37002;DHT22;22913;51.910;8.374;2023-02-15T15:16:45;25.10;74.80
37002;DHT22;22913;51.910;8.374;2023-02-15T15:20:04;25.70;74.60
37002;DHT22;22913;51.910;8.374;2023-02-15T15:23:40;25.40;72.50
37002;DHT22;22913;51.910;8.374;2023-02-15T15:26:29;25.50;73.10
37002;DHT22;22913;51.910;8.374;2023-02-15T15:29:40;25.00;72.60
37002;DHT22;22913;51.910;8.374;2023-02-15T15:32:30;24.40;74.50
37002;DHT22;22913;51.910;8.374;2023-02-15T15:35:23;23.10;75.60
37002;DHT22;22913;51.910;8.374;2023-02-15T15:38:27;22.00;77.40
37002;DHT22;22913;51.910;8.374;2023-02-15T15:41:27;21.20;79.80
37002;DHT22;22913;51.910;8.374;2023-02-15T15:48:05;20.20;83.20
37002;DHT22;22913;51.910;8.374;2023-02-15T15:50:57;19.60;85.30
37002;DHT22;22913;51.910;8.374;2023-02-15T15:53:45;19.30;86.00
37002;DHT22;22913;51.910;8.374;2023-02-15T15:56:36;18.90;87.10
37002;DHT22;22913;51.910;8.374;2023-02-15T15:59:24;18.40;89.10
37002;DHT22;22913;51.910;8.374;2023-02-15T16:02:13;17.90;90.60
37002;DHT22;22913;51.910;8.374;2023-02-15T16:05:06;17.60;91.30
37002;DHT22;22913;51.910;8.374;2023-02-15T16:07:52;17.40;92.50
37002;DHT22;22913;51.910;8.374;2023-02-15T16:10:38;17.20;93.50
37002;DHT22;22913;51.910;8.374;2023-02-15T16:13:26;16.90;94.60
37002;DHT22;22913;51.910;8.374;2023-02-15T16:16:13;16.70;95.50
37002;DHT22;22913;51.910;8.374;2023-02-15T16:19:05;16.60;96.40
37002;DHT22;22913;51.910;8.374;2023-02-15T16:21:51;16.30;97.80
37002;DHT22;22913;51.910;8.374;2023-02-15T16:24:42;16.10;98.90
37002;DHT22;22913;51.910;8.374;2023-02-15T16:27:36;15.90;99.90
37002;DHT22;22913;51.910;8.374;2023-02-15T16:30:29;15.80;99.90
37002;DHT22;22913;51.910;8.374;2023-02-15T16:33:16;15.60;99.90
37002;DHT22;22913;51.910;8.374;2023-02-15T16:36:06;15.40;99.90
37002;DHT22;22913;51.910;8.374;2023-02-15T16:39:07;15.30;99.90
37002;DHT22;22913;51.910;8.374;2023-02-15T16:41:54;15.00;99.90
37002;DHT22;22913;51.910;8.374;2023-02-15T16:44:40;14.90;99.90
37002;DHT22;22913;51.910;8.374;2023-02-15T16:47:29;14.60;99.90
37002;DHT22;22913;51.910;8.374;2023-02-15T16:50:18;14.50;99.90
37002;DHT22;22913;51.910;8.374;2023-02-15T16:53:07;14.30;99.90
37002;DHT22;22913;51.910;8.374;2023-02-15T16:56:00;14.10;99.90
37002;DHT22;22913;51.910;8.374;2023-02-15T16:58:50;13.90;99.90
37002;DHT22;22913;51.910;8.374;2023-02-15T17:01:37;13.80;99.90
37002;DHT22;22913;51.910;8.374;2023-02-15T17:04:29;13.60;99.90
37002;DHT22;22913;51.910;8.374;2023-02-15T17:07:18;13.50;99.90
37002;DHT22;22913;51.910;8.374;2023-02-15T17:10:26;13.40;99.90
37002;DHT22;22913;51.910;8.374;2023-02-15T17:13:13;13.30;99.90
37002;DHT22;22913;51.910;8.374;2023-02-15T17:16:26;13.30;99.90
37002;DHT22;22913;51.910;8.374;2023-02-15T17:19:16;13.10;99.90
37002;DHT22;22913;51.910;8.374;2023-02-15T17:22:05;12.90;99.90
37002;DHT22;22913;51.910;8.374;2023-02-15T17:25:00;12.80;99.90
37002;DHT22;22913;51.910;8.374;2023-02-15T17:27:51;12.60;99.90
37002;DHT22;22913;51.910;8.374;2023-02-15T17:30:37;12.50;99.90
37002;DHT22;22913;51.910;8.374;2023-02-15T17:33:24;12.40;99.90
37002;DHT22;22913;51.910;8.374;2023-02-15T17:36:16;12.20;99.90
37002;DHT22;22913;51.910;8.374;2023-02-15T17:39:19;12.20;99.90
37002;DHT22;22913;51.910;8.374;2023-02-15T17:42:06;12.10;99.90
37002;DHT22;22913;51.910;8.374;2023-02-15T17:44:52;11.90;99.90
37002;DHT22;22913;51.910;8.374;2023-02-15T17:47:37;11.80;99.90
37002;DHT22;22913;51.910;8.374;2023-02-15T17:50:26;11.70;99.90
37002;DHT22;22913;51.910;8.374;2023-02-15T17:53:11;11.50;99.90
37002;DHT22;22913;51.910;8.374;2023-02-15T17:55:59;11.50;99.90
37002;DHT22;22913;51.910;8.374;2023-02-15T17:58:54;11.40;99.90
37002;DHT22;22913;51.910;8.374;2023-02-15T18:01:46;11.20;99.90
37002;DHT22;22913;51.910;8.374;2023-02-15T18:04:50;11.20;99.90
37002;DHT22;22913;51.910;8.374;2023-02-15T18:07:53;11.10;99.90
37002;DHT22;22913;51.910;8.374;2023-02-15T18:10:56;11.00;99.90
37002;DHT22;22913;51.910;8.374;2023-02-15T18:14:01;11.00;99.90
37002;DHT22;22913;51.910;8.374;2023-02-15T18:16:46;10.80;99.90
37002;DHT22;22913;51.910;8.374;2023-02-15T18:19:34;10.70;99.90
37002;DHT22;22913;51.910;8.374;2023-02-15T18:22:21;10.50;99.90
37002;DHT22;22913;51.910;8.374;2023-02-15T18:25:11;10.30;99.90